Time;durP1;ratioP1;P1;durP2;ratioP2;P2;SDS_P1;SDS_P2;PMS_P1;PMS_P2;Temp;Humidity;BMP_temperature;BMP_pressure;BME280_temperature;BME280_humidity;BME280_pressure;Samples;Min_cycle;Max_cycle;Signal;HPM_P1;HPM_P2
2022/11/07 00:02:25;;;;;;;1.20;1.10;;;17.60;81.30;;;;;;5014503;28;20193;-68
2022/11/07 00:04:51;;;;;;;1.13;1.02;;;17.60;81.40;;;;;;4997482;28;20257;-67
2022/11/07 00:07:16;;;;;;;1.48;1.08;;;17.60;81.40;;;;;;5005890;28;20196;-66
2022/11/07 00:09:42;;;;;;;2.10;1.40;;;17.60;81.30;;;;;;4979570;28;20282;-66
2022/11/07 00:12:08;;;;;;;1.00;0.90;;;17.60;81.50;;;;;;4994628;28;20187;-67
2022/11/07 00:14:34;;;;;;;1.83;1.20;;;17.60;81.50;;;;;;4978738;28;20283;-67
2022/11/07 00:17:00;;;;;;;1.15;1.08;;;17.60;81.60;;;;;;4994730;28;20188;-66
2022/11/07 00:19:25;;;;;;;0.98;0.98;;;17.60;81.60;;;;;;4994576;28;20203;-66
2022/11/07 00:21:51;;;;;;;1.10;1.00;;;17.60;81.60;;;;;;4994818;28;20184;-67
2022/11/07 00:24:18;;;;;;;0.90;0.90;;;17.60;81.60;;;;;;4994541;28;20223;-66
2022/11/07 00:26:45;;;;;;;1.08;1.00;;;17.60;81.70;;;;;;4978314;28;20649;-67
2022/11/07 00:29:17;;;;;;;1.20;1.10;;;17.60;81.70;;;;;;4997391;28;20767;-66
2022/11/07 00:31:44;;;;;;;1.10;1.00;;;17.60;81.80;;;;;;5016124;28;20169;-67
2022/11/07 00:34:10;;;;;;;1.13;1.02;;;17.60;81.90;;;;;;4982204;28;20652;-67
2022/11/07 00:36:36;;;;;;;1.02;0.90;;;17.60;82.00;;;;;;4998381;28;20190;-67
2022/11/07 00:39:03;;;;;;;0.80;0.80;;;17.60;81.90;;;;;;5006120;28;20208;-66
2022/11/07 00:41:29;;;;;;;0.90;0.90;;;17.60;81.90;;;;;;5027669;28;20187;-67
2022/11/07 00:43:55;;;;;;;1.08;0.98;;;17.60;82.00;;;;;;5006937;28;20215;-66
2022/11/07 00:46:22;;;;;;;2.63;1.00;;;17.60;82.00;;;;;;5014541;28;20679;-67
2022/11/07 00:48:48;;;;;;;1.77;0.95;;;17.60;81.90;;;;;;5014404;28;20242;-67
2022/11/07 00:51:22;;;;;;;1.10;1.00;;;17.60;81.80;;;;;;4997763;28;20685;-67
2022/11/07 00:53:49;;;;;;;1.15;0.95;;;17.60;81.70;;;;;;4982099;28;20219;-67
2022/11/07 00:56:19;;;;;;;1.00;1.00;;;17.60;81.70;;;;;;5014268;28;20192;-67
2022/11/07 00:58:45;;;;;;;1.05;0.90;;;17.60;81.80;;;;;;5014309;28;20637;-67
2022/11/07 01:01:21;;;;;;;1.23;1.13;;;17.60;81.80;;;;;;5015219;28;20181;-67
2022/11/07 01:06:36;;;;;;;1.58;0.70;;;17.60;82.00;;;;;;5006180;28;20237;-67
2022/11/07 01:09:04;;;;;;;0.90;0.90;;;17.60;82.00;;;;;;5027259;28;20253;-67
2022/11/07 01:11:30;;;;;;;1.00;0.93;;;17.60;82.00;;;;;;5017313;28;20635;-67
2022/11/07 01:13:59;;;;;;;1.08;0.98;;;17.60;82.00;;;;;;5017186;28;20183;-67
2022/11/07 01:16:27;;;;;;;0.90;0.90;;;17.60;82.00;;;;;;5000778;28;20187;-67
2022/11/07 01:18:54;;;;;;;0.93;0.93;;;17.60;82.00;;;;;;5000598;28;20210;-67
2022/11/07 01:21:20;;;;;;;0.82;0.82;;;17.60;82.00;;;;;;5017181;28;20202;-67
2022/11/07 01:23:47;;;;;;;1.23;1.02;;;17.60;82.00;;;;;;5000642;28;20218;-67
2022/11/07 01:26:13;;;;;;;0.90;0.90;;;17.60;82.00;;;;;;5017215;28;20191;-67
2022/11/07 01:28:40;;;;;;;1.23;0.90;;;17.60;82.00;;;;;;5000796;28;20314;-67
2022/11/07 01:31:13;;;;;;;0.80;0.80;;;17.60;82.00;;;;;;5017215;28;20214;-67
2022/11/07 01:33:39;;;;;;;0.88;0.88;;;17.60;82.00;;;;;;5034638;28;20521;-67
2022/11/07 01:36:17;;;;;;;0.80;0.80;;;17.60;82.00;;;;;;5009049;28;20229;-68
2022/11/07 01:38:47;;;;;;;0.90;0.90;;;17.60;82.00;;;;;;5008088;28;20229;-67
2022/11/07 01:41:20;;;;;;;1.50;1.17;;;17.60;82.70;;;;;;5016558;28;20176;-67
2022/11/07 01:44:06;;;;;;;1.02;1.02;;;17.60;82.00;;;;;;5016736;28;20263;-67
2022/11/07 01:46:44;;;;;;;1.70;1.10;;;17.60;82.00;;;;;;5034350;28;20211;-68
2022/11/07 01:49:21;;;;;;;0.80;0.80;;;17.60;82.00;;;;;;5016623;28;20213;-66
2022/11/07 01:51:50;;;;;;;0.90;0.90;;;17.60;82.00;;;;;;5016556;28;20233;-67
2022/11/07 01:54:22;;;;;;;0.90;0.90;;;17.60;82.00;;;;;;5000300;28;20569;-67
2022/11/07 01:56:49;;;;;;;0.88;0.82;;;17.60;82.00;;;;;;5016283;28;20538;-68
2022/11/07 01:59:20;;;;;;;0.98;0.98;;;17.60;82.00;;;;;;5084622;22;20236;-66
2022/11/07 02:01:48;;;;;;;0.68;0.65;;;17.60;82.00;;;;;;5089816;28;20174;-66
2022/11/07 02:04:16;;;;;;;0.85;0.70;;;17.60;82.00;;;;;;5072777;28;20209;-66
2022/11/07 02:06:58;;;;;;;1.92;0.80;;;17.60;82.00;;;;;;5045415;28;20178;-66
2022/11/07 02:09:24;;;;;;;1.48;1.00;;;17.60;82.80;;;;;;5040944;28;20210;-65
2022/11/07 02:11:50;;;;;;;0.77;0.77;;;17.60;82.00;;;;;;5035986;28;20187;-66
2022/11/07 02:14:17;;;;;;;1.20;1.10;;;17.60;82.00;;;;;;5035921;28;20198;-66
2022/11/07 02:16:44;;;;;;;0.82;0.82;;;17.60;82.00;;;;;;5035910;28;20193;-66
2022/11/07 02:19:33;;;;;;;1.13;1.10;;;17.60;82.00;;;;;;5052406;28;20289;-66
2022/11/07 02:22:18;;;;;;;0.93;0.90;;;17.60;82.00;;;;;;5052805;28;20190;-66
2022/11/07 02:24:48;;;;;;;0.70;0.70;;;17.60;82.00;;;;;;5053555;28;20197;-66
2022/11/07 02:27:19;;;;;;;0.85;0.85;;;17.60;82.00;;;;;;5052399;28;20630;-66
2022/11/07 02:29:53;;;;;;;0.75;0.70;;;17.60;82.00;;;;;;5035403;28;20583;-67
2022/11/07 02:32:19;;;;;;;0.90;0.90;;;17.60;82.70;;;;;;5052485;28;20185;-67
2022/11/07 02:34:53;;;;;;;0.77;0.77;;;17.60;82.00;;;;;;5035876;28;20187;-67
2022/11/07 02:37:27;;;;;;;1.00;1.00;;;17.60;82.00;;;;;;5067424;28;20180;-67
2022/11/07 02:39:52;;;;;;;1.42;0.80;;;17.60;82.00;;;;;;5033030;28;20230;-67
2022/11/07 02:42:18;;;;;;;1.50;0.77;;;17.60;82.00;;;;;;5031963;28;20744;-67
2022/11/07 02:44:46;;;;;;;1.00;0.90;;;17.60;82.00;;;;;;5032242;28;20233;-67
2022/11/07 02:47:12;;;;;;;1.23;0.90;;;17.60;82.00;;;;;;5031984;28;20651;-67
2022/11/07 02:49:38;;;;;;;1.23;1.13;;;17.60;82.00;;;;;;5015112;28;20211;-67
2022/11/07 02:52:04;;;;;;;1.13;1.08;;;17.60;82.00;;;;;;5015162;28;20186;-67
2022/11/07 02:54:29;;;;;;;1.30;1.20;;;17.60;82.00;;;;;;5032182;28;20184;-67
2022/11/07 02:56:55;;;;;;;1.20;1.10;;;17.60;82.00;;;;;;5031748;28;20179;-67
2022/11/07 02:59:21;;;;;;;1.00;1.00;;;17.60;82.00;;;;;;5031706;28;20219;-67
2022/11/07 03:01:46;;;;;;;1.05;1.00;;;17.60;82.00;;;;;;5031684;28;20190;-67
2022/11/07 03:04:12;;;;;;;0.90;0.90;;;17.60;82.00;;;;;;5032678;28;20276;-66
2022/11/07 03:06:38;;;;;;;0.80;0.77;;;17.60;82.00;;;;;;5057339;28;20196;-67
2022/11/07 03:09:03;;;;;;;0.90;0.90;;;17.60;82.00;;;;;;5046836;28;20677;-67
2022/11/07 03:11:29;;;;;;;1.52;1.13;;;17.60;82.00;;;;;;5071131;28;20188;-67
2022/11/07 03:13:55;;;;;;;1.20;1.10;;;17.60;82.00;;;;;;5071412;28;20181;-67
2022/11/07 03:16:21;;;;;;;0.90;0.85;;;17.60;82.00;;;;;;5055047;28;20277;-67
2022/11/07 03:18:47;;;;;;;0.93;0.90;;;17.60;82.00;;;;;;5071553;28;20300;-67
2022/11/07 03:21:13;;;;;;;1.13;1.02;;;17.60;82.00;;;;;;5071533;28;20209;-67
2022/11/07 03:23:39;;;;;;;0.80;0.80;;;17.60;82.00;;;;;;5071510;28;20296;-67
2022/11/07 03:26:05;;;;;;;0.90;0.90;;;17.60;82.00;;;;;;5054982;28;20611;-67
2022/11/07 03:28:31;;;;;;;1.20;1.10;;;17.60;82.00;;;;;;5054481;28;20194;-67
2022/11/07 03:31:02;;;;;;;1.20;1.10;;;17.60;82.00;;;;;;5071078;28;20182;-67
2022/11/07 03:33:29;;;;;;;1.13;1.02;;;17.60;82.00;;;;;;5053248;28;20260;-67
2022/11/07 03:35:55;;;;;;;1.00;0.90;;;17.60;82.00;;;;;;5054022;28;20204;-67
2022/11/07 03:38:21;;;;;;;0.80;0.80;;;17.60;82.00;;;;;;5062776;28;20288;-67
2022/11/07 03:40:47;;;;;;;0.85;0.85;;;17.60;82.00;;;;;;5071151;28;20188;-67
2022/11/07 03:43:12;;;;;;;0.73;0.73;;;17.60;82.00;;;;;;5071385;28;20182;-67
2022/11/07 03:45:38;;;;;;;0.80;0.80;;;17.60;82.00;;;;;;5054299;28;20185;-67
2022/11/07 03:48:05;;;;;;;0.95;0.80;;;17.60;82.00;;;;;;5072187;28;20205;-67
2022/11/07 03:50:30;;;;;;;0.90;0.90;;;17.60;82.20;;;;;;5054432;28;20273;-67
2022/11/07 03:52:56;;;;;;;2.47;0.85;;;17.60;82.00;;;;;;5041978;28;20197;-67
2022/11/07 03:55:22;;;;;;;1.27;1.17;;;17.60;82.10;;;;;;5058332;28;20186;-67
2022/11/07 03:57:47;;;;;;;0.77;0.77;;;17.60;82.10;;;;;;5062749;28;20189;-67
2022/11/07 04:00:14;;;;;;;0.73;0.70;;;17.60;82.00;;;;;;5046722;28;20182;-67
2022/11/07 04:02:42;;;;;;;0.90;0.90;;;17.60;82.00;;;;;;5054986;28;20243;-67
2022/11/07 04:05:08;;;;;;;1.10;0.90;;;17.60;82.00;;;;;;5062419;28;20293;-66
2022/11/07 04:07:34;;;;;;;0.90;0.90;;;17.60;82.00;;;;;;5064642;28;20185;-67
2022/11/07 04:10:00;;;;;;;0.90;0.90;;;17.60;82.00;;;;;;5075676;28;20205;-67
2022/11/07 04:17:54;;;;;;;1.00;1.00;;;17.60;82.00;;;;;;5074783;28;20170;-67
2022/11/07 04:20:20;;;;;;;1.00;0.90;;;17.60;82.30;;;;;;5074534;28;20182;-67
2022/11/07 04:22:46;;;;;;;0.70;0.70;;;17.60;82.30;;;;;;5074902;28;20190;-67
2022/11/07 04:25:12;;;;;;;0.82;0.80;;;17.60;82.30;;;;;;5074732;28;20240;-66
2022/11/07 04:27:43;;;;;;;0.75;0.75;;;17.60;82.20;;;;;;5057422;28;20231;-66
2022/11/07 04:30:17;;;;;;;1.00;1.00;;;17.60;82.10;;;;;;5057477;28;20185;-67
2022/11/07 04:32:49;;;;;;;0.98;0.98;;;17.60;82.10;;;;;;5074544;28;20162;-67
2022/11/07 04:35:16;;;;;;;0.80;0.80;;;17.60;82.10;;;;;;5069426;28;20194;-67
2022/11/07 04:37:43;;;;;;;0.93;0.88;;;17.60;82.10;;;;;;5062626;28;20198;-67
2022/11/07 04:40:10;;;;;;;1.42;1.10;;;17.60;82.00;;;;;;5066977;28;20193;-67
2022/11/07 04:42:36;;;;;;;0.85;0.85;;;17.60;82.10;;;;;;5057593;28;20189;-67
2022/11/07 04:45:04;;;;;;;0.80;0.80;;;17.60;82.00;;;;;;5075481;28;20263;-66
2022/11/07 04:47:30;;;;;;;1.00;0.98;;;17.60;82.20;;;;;;5074698;28;20189;-67
2022/11/07 04:49:55;;;;;;;0.88;0.88;;;17.60;82.30;;;;;;5057328;28;20201;-67
2022/11/07 04:52:21;;;;;;;0.80;0.80;;;17.60;82.40;;;;;;5074212;28;20178;-67
2022/11/07 04:54:47;;;;;;;1.08;0.90;;;17.60;82.40;;;;;;5041686;28;20182;-67
2022/11/07 04:57:14;;;;;;;1.10;1.00;;;17.60;82.40;;;;;;5037732;28;20193;-67
2022/11/07 04:59:40;;;;;;;0.77;0.77;;;17.60;82.40;;;;;;5053791;28;20210;-66
2022/11/07 05:02:09;;;;;;;0.90;0.90;;;17.60;82.50;;;;;;5055086;28;20183;-67
2022/11/07 05:04:35;;;;;;;1.23;1.00;;;17.60;82.40;;;;;;5055059;28;20218;-67
2022/11/07 05:07:01;;;;;;;1.13;1.10;;;17.60;82.40;;;;;;5053869;28;20186;-67
2022/11/07 05:09:27;;;;;;;1.20;1.10;;;17.60;82.50;;;;;;5055723;28;20229;-67
2022/11/07 05:11:53;;;;;;;1.15;1.05;;;17.60;82.50;;;;;;5072378;28;20562;-67
2022/11/07 05:14:18;;;;;;;2.00;1.00;;;17.60;82.40;;;;;;5074040;28;20181;-67
2022/11/07 05:16:44;;;;;;;1.00;1.00;;;17.60;82.40;;;;;;5073833;28;20186;-67
2022/11/07 05:19:15;;;;;;;0.93;0.93;;;17.60;82.30;;;;;;5073558;28;20210;-67
2022/11/07 05:21:43;;;;;;;1.08;0.90;;;17.60;82.40;;;;;;5074644;28;20182;-67
2022/11/07 05:24:09;;;;;;;1.10;1.00;;;17.60;82.40;;;;;;5073821;28;20259;-67
2022/11/07 05:26:35;;;;;;;1.45;1.10;;;17.60;82.40;;;;;;5073416;28;20185;-67
2022/11/07 05:29:01;;;;;;;0.95;0.90;;;17.60;82.40;;;;;;5074643;28;20198;-67
2022/11/07 05:31:26;;;;;;;1.10;1.10;;;17.60;82.30;;;;;;5056780;28;20177;-67
2022/11/07 05:33:52;;;;;;;1.23;1.00;;;17.60;82.40;;;;;;5074748;28;20182;-67
2022/11/07 05:36:21;;;;;;;1.02;0.93;;;17.60;82.30;;;;;;5073508;28;20216;-66
2022/11/07 05:38:50;;;;;;;1.20;1.10;;;17.60;82.30;;;;;;5071572;28;20213;-67
2022/11/07 05:41:18;;;;;;;1.10;1.00;;;17.60;82.40;;;;;;5066891;28;20196;-67
2022/11/07 05:43:45;;;;;;;1.10;1.00;;;17.60;82.40;;;;;;5073265;28;20245;-67
2022/11/07 05:46:11;;;;;;;1.10;1.00;;;17.60;82.40;;;;;;5074404;28;20201;-67
2022/11/07 05:48:37;;;;;;;1.00;0.90;;;17.60;82.40;;;;;;5072950;28;20202;-67
2022/11/07 05:51:07;;;;;;;2.15;1.02;;;17.60;82.50;;;;;;5072630;28;20185;-67
2022/11/07 05:53:33;;;;;;;1.02;0.88;;;17.60;82.60;;;;;;5073011;28;20174;-67
2022/11/07 05:55:59;;;;;;;0.90;0.90;;;17.60;82.50;;;;;;5056071;28;20327;-67
2022/11/07 05:58:25;;;;;;;1.45;1.10;;;17.60;82.50;;;;;;5048827;28;20278;-67
2022/11/07 06:00:51;;;;;;;1.25;1.10;;;17.60;82.60;;;;;;5032684;28;20191;-67
2022/11/07 06:03:18;;;;;;;1.13;1.02;;;17.60;82.60;;;;;;5046405;28;20191;-67
2022/11/07 06:05:45;;;;;;;1.30;1.15;;;17.60;82.60;;;;;;5054250;28;20185;-68
2022/11/07 06:08:12;;;;;;;1.45;1.33;;;17.60;82.60;;;;;;5054864;28;20284;-67
2022/11/07 06:10:41;;;;;;;1.17;1.08;;;17.60;82.60;;;;;;5064129;28;20193;-67
2022/11/07 06:13:11;;;;;;;1.48;1.20;;;17.60;82.60;;;;;;5072662;28;20197;-67
2022/11/07 06:15:39;;;;;;;1.63;1.00;;;17.60;82.70;;;;;;5073438;28;20180;-67
2022/11/07 06:18:07;;;;;;;1.35;1.00;;;17.60;82.70;;;;;;5054265;28;20197;-67
2022/11/07 06:20:34;;;;;;;1.63;1.25;;;17.60;82.60;;;;;;5071723;28;20192;-67
2022/11/07 06:23:02;;;;;;;1.25;0.90;;;17.60;82.60;;;;;;5063959;28;20265;-67
2022/11/07 06:25:28;;;;;;;1.20;1.10;;;17.60;83.30;;;;;;5052797;28;20218;-67
2022/11/07 06:28:00;;;;;;;1.30;1.20;;;17.60;82.60;;;;;;5035204;28;20183;-67
2022/11/07 06:30:26;;;;;;;1.88;1.20;;;17.60;82.50;;;;;;5052898;28;20179;-67
2022/11/07 06:32:53;;;;;;;1.00;0.90;;;17.60;82.60;;;;;;5052997;28;20175;-67
2022/11/07 06:35:18;;;;;;;0.90;0.90;;;17.60;82.50;;;;;;5051688;28;20193;-67
2022/11/07 06:37:44;;;;;;;1.25;1.15;;;17.60;82.60;;;;;;5051236;28;20195;-67
2022/11/07 06:40:10;;;;;;;1.20;1.10;;;17.60;82.60;;;;;;5059801;28;20197;-67
2022/11/07 06:42:37;;;;;;;1.15;1.00;;;17.60;82.70;;;;;;5067655;28;20182;-67
2022/11/07 06:45:04;;;;;;;1.27;1.17;;;17.60;82.60;;;;;;5031522;28;20595;-67
2022/11/07 06:47:30;;;;;;;1.05;1.00;;;17.60;83.40;;;;;;5031710;28;20183;-68
2022/11/07 06:49:55;;;;;;;1.17;0.90;;;17.60;82.70;;;;;;5014812;28;20207;-67
2022/11/07 06:52:21;;;;;;;1.40;1.30;;;17.60;82.70;;;;;;5031099;28;20214;-67
2022/11/07 06:54:47;;;;;;;1.40;1.30;;;17.70;82.80;;;;;;5015155;28;20245;-67
2022/11/07 06:57:13;;;;;;;1.60;1.50;;;17.60;82.60;;;;;;5015074;28;20226;-67
2022/11/07 06:59:39;;;;;;;1.40;1.30;;;17.60;82.50;;;;;;5021621;28;20206;-67
2022/11/07 07:02:04;;;;;;;1.50;1.40;;;17.60;82.70;;;;;;5034485;28;20548;-68
2022/11/07 07:04:30;;;;;;;2.45;1.27;;;17.60;82.60;;;;;;5057113;28;20259;-67
2022/11/07 07:06:56;;;;;;;2.03;1.40;;;17.60;82.60;;;;;;5049146;28;20198;-67
2022/11/07 07:09:22;;;;;;;1.80;1.30;;;17.60;82.60;;;;;;5065523;28;20233;-67
2022/11/07 07:11:47;;;;;;;1.60;1.50;;;17.70;82.70;;;;;;5071059;28;20186;-67
2022/11/07 07:14:13;;;;;;;1.60;1.50;;;17.60;82.50;;;;;;5070947;28;20231;-67
2022/11/07 07:16:39;;;;;;;1.30;1.20;;;17.60;82.40;;;;;;5071090;28;20205;-67
2022/11/07 07:19:04;;;;;;;1.45;1.30;;;17.70;82.60;;;;;;5054404;28;20205;-67
2022/11/07 07:21:32;;;;;;;1.48;1.23;;;17.70;82.60;;;;;;5070701;28;20190;-67
2022/11/07 07:23:58;;;;;;;1.63;1.50;;;17.70;82.60;;;;;;5070785;28;20213;-67
2022/11/07 07:26:23;;;;;;;1.27;1.17;;;17.70;82.60;;;;;;5054176;28;20192;-67
2022/11/07 07:28:49;;;;;;;1.33;0.95;;;17.70;82.70;;;;;;5070924;28;20286;-67
2022/11/07 07:31:15;;;;;;;1.85;1.70;;;17.60;83.30;;;;;;5054300;28;20186;-67
2022/11/07 07:33:42;;;;;;;1.75;1.10;;;17.60;82.50;;;;;;5070734;28;20194;-67
2022/11/07 07:36:09;;;;;;;1.58;1.35;;;17.60;82.50;;;;;;5060588;28;20195;-67
2022/11/07 07:38:35;;;;;;;1.70;1.00;;;17.70;82.70;;;;;;5055149;28;20580;-67
2022/11/07 07:41:01;;;;;;;2.40;1.38;;;17.70;82.60;;;;;;5047871;28;20186;-67
2022/11/07 07:43:28;;;;;;;1.88;1.40;;;17.70;82.60;;;;;;5050629;28;20191;-67
2022/11/07 07:46:02;;;;;;;2.15;1.20;;;17.70;82.70;;;;;;5050818;28;20261;-67
2022/11/07 07:48:28;;;;;;;1.75;1.20;;;17.70;82.70;;;;;;5033833;28;20298;-67
2022/11/07 07:50:54;;;;;;;1.77;1.02;;;17.70;82.70;;;;;;5050449;28;20200;-67
2022/11/07 07:53:20;;;;;;;2.58;1.00;;;17.70;82.60;;;;;;5033868;28;20229;-67
2022/11/07 07:55:46;;;;;;;1.38;1.27;;;17.70;82.40;;;;;;5033980;28;20654;-67
2022/11/07 08:01:08;;;;;;;2.20;1.50;;;17.70;82.40;;;;;;5049283;28;20340;-70
2022/11/07 08:03:35;;;;;;;2.65;1.42;;;17.70;82.40;;;;;;5050262;28;20669;-70
2022/11/07 08:06:00;;;;;;;3.13;1.60;;;17.70;82.40;;;;;;5017349;28;20194;-70
2022/11/07 08:08:26;;;;;;;1.50;1.40;;;17.70;82.30;;;;;;5017088;28;20289;-70
2022/11/07 08:10:55;;;;;;;1.50;1.23;;;17.70;82.40;;;;;;5033646;28;20198;-70
2022/11/07 08:13:23;;;;;;;1.52;1.35;;;17.70;82.10;;;;;;5033986;28;20187;-70
2022/11/07 08:15:51;;;;;;;2.53;1.30;;;17.70;82.10;;;;;;5017540;28;20183;-70
2022/11/07 08:18:20;;;;;;;1.35;1.20;;;17.70;82.30;;;;;;5017273;28;20254;-70
2022/11/07 08:20:49;;;;;;;2.83;1.58;;;17.70;82.40;;;;;;5017139;28;20205;-70
2022/11/07 08:23:15;;;;;;;1.60;1.45;;;17.70;82.40;;;;;;5026148;28;20184;-70
2022/11/07 08:25:42;;;;;;;1.80;1.30;;;17.70;82.30;;;;;;4997425;28;20226;-70
2022/11/07 08:28:07;;;;;;;1.42;1.23;;;17.70;82.30;;;;;;5013947;28;20180;-70
2022/11/07 08:30:34;;;;;;;3.00;1.30;;;17.70;82.10;;;;;;4997289;28;20206;-70
2022/11/07 08:33:02;;;;;;;2.42;1.40;;;17.70;82.10;;;;;;5013984;28;20187;-70
2022/11/07 08:35:30;;;;;;;2.38;1.60;;;17.70;82.10;;;;;;5013877;28;20647;-70
2022/11/07 08:37:56;;;;;;;2.42;1.33;;;17.70;82.10;;;;;;5024548;28;20192;-70
2022/11/07 08:40:22;;;;;;;1.67;1.23;;;17.70;82.10;;;;;;5016956;28;20206;-70
2022/11/07 08:42:48;;;;;;;1.85;1.20;;;17.70;82.10;;;;;;5033463;28;20186;-69
2022/11/07 08:45:14;;;;;;;2.30;1.20;;;17.70;82.10;;;;;;5033421;28;20218;-70
2022/11/07 08:47:39;;;;;;;2.88;1.23;;;17.70;82.10;;;;;;5016952;28;20189;-70
2022/11/07 08:50:06;;;;;;;1.40;1.30;;;17.70;82.10;;;;;;5019470;28;20203;-70
2022/11/07 08:52:34;;;;;;;2.95;1.42;;;17.70;82.10;;;;;;5034215;28;20202;-70
2022/11/07 08:55:02;;;;;;;1.38;1.10;;;17.70;82.10;;;;;;5020672;28;20228;-70
2022/11/07 08:57:28;;;;;;;1.40;1.30;;;17.70;82.10;;;;;;5036923;28;20190;-70
2022/11/07 08:59:54;;;;;;;1.30;1.20;;;17.70;82.10;;;;;;5054683;28;20602;-69
2022/11/07 09:02:20;;;;;;;1.42;1.30;;;17.70;82.10;;;;;;5020240;28;20187;-70
2022/11/07 09:04:46;;;;;;;1.48;1.20;;;17.70;82.10;;;;;;5036982;28;20206;-70
2022/11/07 09:07:11;;;;;;;1.52;1.33;;;17.70;82.10;;;;;;5028268;28;20193;-70
2022/11/07 09:09:37;;;;;;;1.35;1.25;;;17.70;82.10;;;;;;5030163;28;20202;-70
2022/11/07 09:12:03;;;;;;;1.38;1.27;;;17.70;82.10;;;;;;5017103;28;20180;-70
2022/11/07 09:14:28;;;;;;;1.67;1.30;;;17.70;82.10;;;;;;5033468;28;20179;-70
2022/11/07 09:16:54;;;;;;;1.45;1.27;;;17.70;82.10;;;;;;5034636;28;20187;-70
2022/11/07 09:19:20;;;;;;;1.52;1.10;;;17.70;82.10;;;;;;5033285;28;20222;-70
2022/11/07 09:21:46;;;;;;;2.45;1.33;;;17.70;82.10;;;;;;5000195;28;20194;-70
2022/11/07 09:24:11;;;;;;;1.23;1.10;;;17.80;83.00;;;;;;5016689;28;20211;-70
2022/11/07 09:26:37;;;;;;;1.52;1.15;;;17.70;82.10;;;;;;5016761;28;20244;-70
2022/11/07 09:29:03;;;;;;;1.30;1.20;;;17.80;82.20;;;;;;5033209;28;20195;-70
2022/11/07 09:31:28;;;;;;;1.80;1.23;;;17.80;82.20;;;;;;5016365;28;20191;-70
2022/11/07 09:33:54;;;;;;;2.58;1.40;;;17.80;82.20;;;;;;5016497;28;20191;-70
2022/11/07 09:36:21;;;;;;;1.30;1.20;;;17.80;82.20;;;;;;5023361;28;20194;-70
2022/11/07 09:38:46;;;;;;;2.13;1.20;;;17.70;82.10;;;;;;5028021;28;20210;-70
2022/11/07 09:42:02;;;;;;;1.30;1.20;;;17.80;82.20;;;;;;5019725;28;20183;-70
2022/11/07 09:44:58;;;;;;;1.63;1.17;;;17.80;82.20;;;;;;5033906;28;20269;-70
2022/11/07 09:47:27;;;;;;;1.40;1.30;;;17.80;82.20;;;;;;5019416;28;20192;-70
2022/11/07 09:49:59;;;;;;;2.05;1.13;;;17.80;82.20;;;;;;5036251;28;20206;-69
2022/11/07 09:52:45;;;;;;;1.08;0.98;;;17.80;82.20;;;;;;5036171;28;20264;-70
2022/11/07 09:55:27;;;;;;;1.63;1.40;;;17.80;82.20;;;;;;5019497;28;20190;-70
2022/11/07 09:58:00;;;;;;;1.40;1.25;;;17.80;82.20;;;;;;5019384;28;20229;-70
2022/11/07 10:00:30;;;;;;;1.38;1.25;;;17.80;82.10;;;;;;5018815;28;20279;-70
2022/11/07 10:03:00;;;;;;;1.30;1.20;;;17.80;82.20;;;;;;5032295;28;20210;-70
2022/11/07 10:05:53;;;;;;;1.75;1.08;;;17.80;82.20;;;;;;5023964;28;20238;-70
2022/11/07 10:08:28;;;;;;;1.20;1.10;;;17.80;82.10;;;;;;5015991;28;20183;-70
2022/11/07 10:10:59;;;;;;;1.48;1.25;;;17.80;82.20;;;;;;5015534;28;20187;-69
2022/11/07 10:13:37;;;;;;;1.55;1.30;;;17.80;82.20;;;;;;4999965;28;20192;-70
2022/11/07 10:16:21;;;;;;;1.50;1.40;;;17.80;82.20;;;;;;5000108;28;20253;-70
2022/11/07 10:18:59;;;;;;;1.98;1.30;;;17.90;83.50;;;;;;5003952;28;20697;-70
2022/11/07 10:22:00;;;;;;;1.70;1.25;;;17.90;83.10;;;;;;5035692;28;20669;-69
2022/11/07 10:25:04;;;;;;;1.75;1.42;;;17.90;83.40;;;;;;5035513;28;20210;-69
2022/11/07 10:27:30;;;;;;;1.45;1.30;;;17.80;83.20;;;;;;5035897;28;20175;-70
2022/11/07 10:29:58;;;;;;;1.92;1.50;;;17.80;83.30;;;;;;5019119;28;20252;-70
2022/11/07 10:33:08;;;;;;;1.35;1.10;;;17.80;83.30;;;;;;5019312;28;20181;-70
2022/11/07 10:35:41;;;;;;;1.10;1.00;;;17.90;83.20;;;;;;4949586;29;20195;-70
2022/11/07 10:38:29;;;;;;;1.35;1.25;;;17.80;82.70;;;;;;4992152;28;20249;-70
2022/11/07 10:40:55;;;;;;;1.38;1.27;;;17.80;82.90;;;;;;4999192;28;20274;-69
2022/11/07 10:43:36;;;;;;;1.83;1.25;;;17.80;82.80;;;;;;4999063;28;20278;-70
2022/11/07 10:46:40;;;;;;;1.70;1.30;;;17.80;82.80;;;;;;5033375;28;20167;-70
2022/11/07 10:49:28;;;;;;;1.45;1.10;;;17.80;82.80;;;;;;5011736;28;20235;-70
2022/11/07 10:52:15;;;;;;;2.15;1.15;;;17.80;82.80;;;;;;5015376;28;20183;-69
2022/11/07 10:54:43;;;;;;;1.88;1.25;;;17.90;82.60;;;;;;4999171;28;20180;-70
2022/11/07 10:57:15;;;;;;;1.13;1.00;;;17.90;82.60;;;;;;5015505;28;20182;-70
2022/11/07 10:59:58;;;;;;;1.58;1.25;;;17.90;82.60;;;;;;5015256;28;20218;-70
2022/11/07 11:02:29;;;;;;;1.35;1.02;;;17.80;82.20;;;;;;5015352;28;20177;-70
2022/11/07 11:05:01;;;;;;;2.53;1.40;;;17.90;82.60;;;;;;5017737;28;20230;-70
2022/11/07 11:07:38;;;;;;;2.85;1.20;;;17.90;82.70;;;;;;5035091;28;20167;-70
2022/11/07 11:10:17;;;;;;;1.10;1.00;;;17.90;82.60;;;;;;5018505;28;20209;-70
2022/11/07 11:12:48;;;;;;;1.35;1.25;;;17.90;82.60;;;;;;5017930;28;20216;-70
2022/11/07 11:15:18;;;;;;;2.00;1.20;;;17.90;82.50;;;;;;5052855;28;20269;-70
2022/11/07 11:17:45;;;;;;;1.30;1.20;;;17.90;82.60;;;;;;5017792;28;20194;-70
2022/11/07 11:20:51;;;;;;;2.15;1.25;;;17.90;82.60;;;;;;4998572;28;20209;-69
2022/11/07 11:23:22;;;;;;;1.23;1.13;;;17.90;83.20;;;;;;5031756;28;20626;-70
2022/11/07 11:25:51;;;;;;;1.48;1.38;;;17.90;82.60;;;;;;5014894;28;20210;-70
2022/11/07 11:28:28;;;;;;;1.17;1.00;;;17.90;82.50;;;;;;4998575;28;20179;-70
2022/11/07 11:31:01;;;;;;;1.55;1.10;;;17.90;82.50;;;;;;5015108;28;20210;-70
2022/11/07 11:33:38;;;;;;;1.45;1.35;;;17.90;82.70;;;;;;5038603;28;20174;-70
2022/11/07 11:36:22;;;;;;;1.88;1.33;;;17.90;82.40;;;;;;5044536;28;20170;-70
2022/11/07 11:38:54;;;;;;;3.13;1.35;;;17.90;82.30;;;;;;5034725;28;20237;-70
2022/11/07 11:41:51;;;;;;;2.03;1.40;;;17.90;82.30;;;;;;5026164;28;20183;-71
2022/11/07 11:44:31;;;;;;;1.60;1.30;;;17.90;82.30;;;;;;5018301;28;20210;-71
2022/11/07 11:47:35;;;;;;;1.60;1.50;;;17.90;82.40;;;;;;5046606;28;20191;-70
2022/11/07 11:50:14;;;;;;;2.05;1.40;;;17.90;82.50;;;;;;4993634;28;20269;-69
2022/11/07 11:52:40;;;;;;;2.20;1.30;;;17.90;82.40;;;;;;5014677;28;20182;-70
2022/11/07 11:55:17;;;;;;;2.20;1.50;;;17.90;82.60;;;;;;5014678;28;20191;-69
2022/11/07 11:58:33;;;;;;;2.05;1.60;;;17.90;82.60;;;;;;5013174;28;20194;-70
2022/11/07 12:01:19;;;;;;;3.33;1.80;;;17.90;82.60;;;;;;4990694;28;20202;-71
2022/11/07 12:04:07;;;;;;;2.55;2.10;;;17.90;82.60;;;;;;5022512;28;20193;-70
2022/11/07 12:06:39;;;;;;;1.73;1.63;;;17.90;82.60;;;;;;5045361;28;20240;-70
2022/11/07 12:09:31;;;;;;;2.33;2.13;;;17.90;82.30;;;;;;5034189;28;20209;-70
2022/11/07 12:12:18;;;;;;;2.50;2.20;;;17.90;82.30;;;;;;5034190;28;20282;-71
2022/11/07 12:15:00;;;;;;;3.40;2.70;;;17.90;82.30;;;;;;5006519;28;20186;-70
2022/11/07 12:17:46;;;;;;;3.15;2.72;;;17.90;82.50;;;;;;5014337;28;20187;-70
2022/11/07 12:20:29;;;;;;;2.25;2.05;;;17.90;82.50;;;;;;4998040;28;20209;-69
2022/11/07 12:23:44;;;;;;;4.00;2.60;;;17.90;82.60;;;;;;5015257;28;20194;-70
2022/11/07 12:26:59;;;;;;;2.35;2.00;;;17.90;82.70;;;;;;5033962;28;20202;-70
2022/11/07 12:29:51;;;;;;;4.22;2.40;;;17.90;82.60;;;;;;5014453;28;20728;-70
2022/11/07 12:32:45;;;;;;;3.30;2.63;;;17.90;82.70;;;;;;5027078;28;20206;-70
2022/11/07 12:35:57;;;;;;;3.60;2.88;;;17.90;82.70;;;;;;5019443;28;20270;-70
2022/11/07 12:39:00;;;;;;;4.20;3.00;;;17.90;82.70;;;;;;5001534;28;20179;-70
2022/11/07 12:41:40;;;;;;;5.18;3.22;;;17.90;82.90;;;;;;5025785;28;20179;-70
2022/11/07 12:44:48;;;;;;;3.38;2.83;;;17.90;82.90;;;;;;5001467;28;20207;-70
2022/11/07 12:47:26;;;;;;;4.10;3.00;;;17.90;82.70;;;;;;5001504;28;20249;-70
2022/11/07 12:50:00;;;;;;;5.25;3.30;;;17.90;82.70;;;;;;5017750;28;20285;-69
2022/11/07 12:52:45;;;;;;;3.95;3.25;;;17.90;82.90;;;;;;5017686;28;20175;-70
2022/11/07 12:55:52;;;;;;;3.97;3.28;;;17.90;83.00;;;;;;5017875;28;20168;-70
2022/11/07 12:58:28;;;;;;;4.03;3.53;;;17.90;83.70;;;;;;4984455;28;20198;-70
2022/11/07 13:00:55;;;;;;;3.95;3.40;;;17.90;82.80;;;;;;5034218;28;20174;-70
2022/11/07 13:03:27;;;;;;;4.07;3.60;;;17.90;82.90;;;;;;5017683;28;20583;-70
2022/11/07 13:06:43;;;;;;;4.70;3.42;;;17.90;83.00;;;;;;5026914;28;20249;-70
2022/11/07 13:09:27;;;;;;;3.97;3.33;;;17.90;83.80;;;;;;5001111;28;20257;-70
2022/11/07 13:12:13;;;;;;;3.53;3.08;;;17.90;83.10;;;;;;5033865;28;20176;-70
2022/11/07 13:14:41;;;;;;;4.80;4.03;;;17.90;82.90;;;;;;5034119;28;20661;-71
2022/11/07 13:17:18;;;;;;;4.35;3.42;;;17.90;83.00;;;;;;5017124;28;20187;-70
2022/11/07 13:20:05;;;;;;;4.32;3.42;;;17.90;83.00;;;;;;5000934;28;20238;-70
2022/11/07 13:22:38;;;;;;;5.20;3.65;;;18.00;83.10;;;;;;5019113;28;20232;-69